Weather History for Marion, VA

Change the Weather History Date:

Tuesday, November 6, 2012

  Actual Average (KGEV) Record (KGEV)
Temperature  
Mean Temperature 34 °F -  
Max Temperature 40 °F 55 °F 73 °F (2005)
Min Temperature 29 °F 31 °F 11 °F (1991)
Degree Days  
Heating Degree Days 30    
Moisture  
Dew Point 29 °F    
Average Humidity 79    
Maximum Humidity 94    
Minimum Humidity 66    
Precipitation  
Precipitation 0.00 in - - ()
Sea Level Pressure  
Sea Level Pressure 30.02 in    
Wind  
Wind Speed 6 mph (ENE)    
Max Wind Speed 12 mph    
Max Gust Speed -    
Visibility 10 miles    
Events      
Averages and records for this station are not official NWS values.
T = Trace of Precipitation, MM = Missing Value Source: NWS Daily Summary

Daily Weather History Graph

Daily Weather History Graph

Search for Another Location

Airport:

Trip Planner

Search our weather history database for the weather conditions in past years. The results will help you decide how hot, cold, wet, or windy it might be!

Date:

Astronomy

Nov. 06, 2012 Rise Set
Actual Time 6:54 AM EST 5:22 PM EST
Civil Twilight 6:27 AM EST 5:49 PM EST
Nautical Twilight 5:56 AM EST 6:20 PM EST
Astronomical Twilight 5:26 AM EST 6:51 PM EST
Moon 11:58 PM EST (11/6) 12:47 PM EST (11/6)
Length of Visible Light 11h 22m
Length of Day
10h 27m
Waning Gibbous, 53% of the Moon is Illuminated
Nov 6
Waning Gibbous
Nov 6
Last Quarter
Nov 13
New
Nov 20
First Quarter
Nov 28
Full

Hourly Weather History & Observations

Time (EST) Temp. Windchill Dew Point Humidity Pressure Visibility Wind Dir Wind Speed Gust Speed Precip Events Conditions
12:15 AM 33.3 °F 30.2 °F 27.5 °F 79% 30.08 in 10.0 mi East 3.5 mph - N/A   Clear
12:35 AM 34.3 °F 30.2 °F 27.5 °F 76% 30.08 in 10.0 mi ENE 4.6 mph - N/A   Clear
12:55 AM 35.6 °F 31.7 °F 27.5 °F 72% 30.08 in 10.0 mi ENE 4.6 mph - N/A   Clear
1:15 AM 34.5 °F 29.4 °F 27.5 °F 76% 30.07 in 10.0 mi East 5.8 mph - N/A   Clear
1:35 AM 33.8 °F 29.6 °F 27.5 °F 78% 30.07 in 10.0 mi ENE 4.6 mph - N/A   Clear
1:55 AM 33.8 °F 27.7 °F 27.3 °F 77% 30.06 in 10.0 mi ENE 6.9 mph - N/A   Clear
2:15 AM 33.1 °F 27.7 °F 27.5 °F 80% 30.07 in 10.0 mi ESE 5.8 mph - N/A   Clear
2:35 AM 32.5 °F 27.1 °F 27.3 °F 81% 30.07 in 10.0 mi ENE 5.8 mph - N/A   Clear
2:55 AM 33.6 °F 26.2 °F 27.3 °F 78% 30.07 in 10.0 mi ENE 9.2 mph - N/A   Clear
3:15 AM 32.5 °F 25.5 °F 27.3 °F 81% 30.06 in 10.0 mi ENE 8.1 mph - N/A   Clear
3:35 AM 32.7 °F 25.7 °F 27.3 °F 81% 30.06 in 10.0 mi ENE 8.1 mph - N/A   Clear
3:55 AM 32.0 °F 24.8 °F 27.3 °F 83% 30.06 in 10.0 mi ENE 8.1 mph - N/A   Clear
4:15 AM 31.1 °F 25.4 °F 27.0 °F 85% 30.06 in 10.0 mi East 5.8 mph - N/A   Clear
4:35 AM 30.9 °F 25.2 °F 27.0 °F 85% 30.06 in 10.0 mi ENE 5.8 mph - N/A   Clear
4:55 AM 31.5 °F 25.8 °F 27.0 °F 83% 30.07 in 10.0 mi East 5.8 mph - N/A   Clear
5:15 AM 30.7 °F 26.0 °F 26.8 °F 85% 30.07 in 10.0 mi ESE 4.6 mph - N/A   Clear
5:35 AM 30.9 °F 24.3 °F 27.3 °F 86% 30.07 in 10.0 mi ENE 6.9 mph - N/A   Clear
5:55 AM 31.8 °F 22.8 °F 27.3 °F 83% 30.07 in 10.0 mi NE 11.5 mph - N/A   Clear
6:15 AM 31.3 °F 22.7 °F 27.3 °F 85% 30.07 in 10.0 mi ENE 10.4 mph - N/A   Clear
6:35 AM 31.3 °F 23.9 °F 27.3 °F 85% 30.07 in 10.0 mi ENE 8.1 mph - N/A   Clear
6:55 AM 31.8 °F 23.9 °F 27.5 °F 84% 30.07 in 10.0 mi ENE 9.2 mph - N/A   Scattered Clouds
7:15 AM 31.1 °F 26.4 °F 27.5 °F 87% 30.08 in 10.0 mi East 4.6 mph - N/A   Mostly Cloudy
7:35 AM 32.0 °F 24.2 °F 28.0 °F 85% 30.09 in 10.0 mi ENE 9.2 mph - N/A   Overcast
7:55 AM 31.8 °F 23.3 °F 27.7 °F 85% 30.09 in 10.0 mi ENE 10.4 mph - N/A   Mostly Cloudy
8:15 AM 32.0 °F 24.8 °F 28.2 °F 86% 30.09 in 10.0 mi ENE 8.1 mph - N/A   Clear
8:35 AM 32.9 °F 26.7 °F 28.6 °F 84% 30.09 in 10.0 mi ENE 6.9 mph - N/A   Clear
8:55 AM 34.3 °F 27.0 °F 29.3 °F 82% 30.09 in 10.0 mi ENE 9.2 mph - N/A   Clear
9:15 AM 34.7 °F 28.1 °F 29.3 °F 81% 30.09 in 10.0 mi ENE 8.1 mph - N/A   Clear
9:35 AM 34.9 °F 27.7 °F 29.3 °F 80% 30.09 in 10.0 mi NE 9.2 mph - N/A   Clear
9:55 AM 35.6 °F 28.0 °F 29.5 °F 78% 30.09 in 10.0 mi NE 10.4 mph - N/A   Clear
10:15 AM 36.7 °F 29.9 °F 30.6 °F 78% 30.08 in 10.0 mi ENE 9.2 mph - N/A   Clear
10:35 AM 37.4 °F 30.8 °F 29.3 °F 73% 30.09 in 10.0 mi ENE 9.2 mph - N/A   Scattered Clouds
10:55 AM 37.9 °F 31.5 °F 29.8 °F 73% 30.07 in 10.0 mi ENE 9.2 mph - N/A   Scattered Clouds
11:15 AM 38.5 °F 32.7 °F 30.2 °F 72% 30.07 in 10.0 mi ENE 8.1 mph - N/A   Clear
11:35 AM 38.7 °F 32.9 °F 30.2 °F 72% 30.06 in 10.0 mi ENE 8.1 mph - N/A   Clear
11:55 AM 39.2 °F 32.5 °F 30.4 °F 71% 30.05 in 10.0 mi NE 10.4 mph - N/A   Clear
12:15 PM 39.2 °F 33.6 °F 30.4 °F 71% 30.03 in 10.0 mi ENE 8.1 mph - N/A   Clear
12:35 PM 39.7 °F 34.9 °F 30.4 °F 69% 30.03 in 10.0 mi ENE 6.9 mph - N/A   Clear
12:55 PM 39.7 °F 35.6 °F 30.4 °F 69% 30.02 in 10.0 mi ENE 5.8 mph - N/A   Clear
1:15 PM 40.1 °F 36.1 °F 30.7 °F 69% 30.01 in 10.0 mi East 5.8 mph - N/A   Clear
1:35 PM 39.9 °F 35.1 °F 30.0 °F 68% 30.00 in 10.0 mi ENE 6.9 mph - N/A   Clear
1:55 PM 40.1 °F 35.3 °F 30.2 °F 68% 30.00 in 10.0 mi ENE 6.9 mph - N/A   Clear
2:15 PM 40.3 °F 35.5 °F 30.4 °F 68% 30.00 in 10.0 mi NE 6.9 mph - N/A   Clear
2:35 PM 40.1 °F 35.3 °F 29.8 °F 67% 29.99 in 10.0 mi NE 6.9 mph - N/A   Clear
2:55 PM 40.3 °F 37.1 °F 29.8 °F 66% 29.98 in 10.0 mi NE 4.6 mph - N/A   Clear
3:15 PM 40.5 °F 37.3 °F 30.2 °F 67% 29.98 in 10.0 mi ENE 4.6 mph - N/A   Clear
3:35 PM 40.3 °F - 29.7 °F 66% 29.97 in 10.0 mi Calm Calm - N/A   Clear
3:55 PM 40.3 °F 37.1 °F 30.2 °F 67% 29.97 in 10.0 mi East 4.6 mph - N/A   Clear
4:15 PM 40.1 °F 38.0 °F 29.8 °F 67% 29.96 in 10.0 mi East 3.5 mph - N/A   Clear
4:35 PM 39.7 °F 36.5 °F 30.4 °F 69% 29.96 in 10.0 mi NE 4.6 mph - N/A   Clear
4:55 PM 39.2 °F 35.9 °F 30.6 °F 71% 29.96 in 10.0 mi ENE 4.6 mph - N/A   Clear
5:15 PM 38.7 °F 35.2 °F 30.2 °F 72% 29.96 in 10.0 mi ENE 4.6 mph - N/A   Clear
5:35 PM 37.8 °F - 30.7 °F 76% 29.96 in 10.0 mi Calm Calm - N/A   Clear
5:55 PM 37.4 °F - 30.9 °F 77% 29.96 in 10.0 mi Calm Calm - N/A   Clear
6:35 PM 37.0 °F - 30.9 °F 79% 29.98 in 10.0 mi Calm Calm - N/A   Scattered Clouds
6:55 PM 35.6 °F 32.8 °F 31.1 °F 84% 29.98 in 10.0 mi East 3.5 mph - N/A   Overcast
7:15 PM 35.6 °F 32.8 °F 31.1 °F 84% 29.98 in 10.0 mi East 3.5 mph - N/A   Mostly Cloudy
7:35 PM 35.6 °F - 30.6 °F 82% 29.98 in 10.0 mi Calm Calm - N/A   Scattered Clouds
7:55 PM 34.3 °F - 30.4 °F 85% 29.98 in 10.0 mi Calm Calm - N/A   Clear
8:15 PM 34.0 °F - 30.2 °F 86% 29.98 in 10.0 mi Calm Calm - N/A   Clear
8:35 PM 33.4 °F - 30.2 °F 88% 29.97 in 10.0 mi Calm Calm - N/A   Clear
8:55 PM 32.4 °F - 29.7 °F 90% 29.96 in 7.0 mi Calm Calm - N/A   Clear
9:15 PM 33.3 °F - 29.8 °F 87% 29.96 in 10.0 mi Calm Calm - N/A   Clear
9:35 PM 32.2 °F - 29.5 °F 90% 29.96 in 7.0 mi Calm Calm - N/A   Clear
9:55 PM 31.6 °F 27.0 °F 29.3 °F 91% 29.95 in 7.0 mi East 4.6 mph - N/A   Clear
10:15 PM 32.0 °F - 28.9 °F 88% 29.95 in 7.0 mi Calm Calm - N/A   Clear
10:35 PM 32.2 °F - 29.1 °F 88% 29.95 in 7.0 mi Calm Calm - N/A   Clear
10:55 PM 32.0 °F - 28.9 °F 88% 29.95 in 7.0 mi Calm Calm - N/A   Scattered Clouds
11:15 PM 31.1 °F - 28.4 °F 90% 29.95 in 7.0 mi Calm Calm - N/A   Mostly Cloudy
11:35 PM 29.1 °F - 27.5 °F 94% 29.94 in 5.0 mi Calm Calm - N/A   Scattered Clouds
11:55 PM 29.8 °F - 28.0 °F 93% 29.94 in 5.0 mi Calm Calm - N/A   Scattered Clouds